sensor_id;sensor_type;location;lat;lon;timestamp;pressure;altitude;pressure_sealevel;temperature;humidity
69772;BME280;57046;45.988;18.664;2023-04-01T00:01:53;99481.91;;;13.05;94.58
69772;BME280;57046;45.988;18.664;2023-04-01T00:04:18;99480.13;;;12.94;95.02
69772;BME280;57046;45.988;18.664;2023-04-01T00:06:44;99466.16;;;12.92;94.19
69772;BME280;57046;45.988;18.664;2023-04-01T00:09:09;99466.88;;;12.89;93.51
69772;BME280;57046;45.988;18.664;2023-04-01T00:11:35;99466.56;;;12.94;93.42
69772;BME280;57046;45.988;18.664;2023-04-01T00:14:00;99465.56;;;13.02;93.69
69772;BME280;57046;45.988;18.664;2023-04-01T00:16:25;99463.91;;;12.97;93.88
69772;BME280;57046;45.988;18.664;2023-04-01T00:18:51;99459.28;;;12.98;94.06
69772;BME280;57046;45.988;18.664;2023-04-01T00:21:17;99455.38;;;12.76;95.30
69772;BME280;57046;45.988;18.664;2023-04-01T00:23:43;99454.63;;;12.75;95.46
69772;BME280;57046;45.988;18.664;2023-04-01T00:26:08;99457.25;;;12.72;95.62
69772;BME280;57046;45.988;18.664;2023-04-01T00:28:34;99447.63;;;12.55;96.29
69772;BME280;57046;45.988;18.664;2023-04-01T00:31:05;99456.19;;;12.57;96.38
69772;BME280;57046;45.988;18.664;2023-04-01T00:33:30;99444.91;;;12.55;97.03
69772;BME280;57046;45.988;18.664;2023-04-01T00:35:56;99455.81;;;12.59;97.01
69772;BME280;57046;45.988;18.664;2023-04-01T00:38:21;99447.19;;;12.53;96.80
69772;BME280;57046;45.988;18.664;2023-04-01T00:40:46;99444.06;;;12.51;97.24
69772;BME280;57046;45.988;18.664;2023-04-01T00:43:18;99439.56;;;12.40;97.96
69772;BME280;57046;45.988;18.664;2023-04-01T00:45:44;99437.88;;;12.51;96.95
69772;BME280;57046;45.988;18.664;2023-04-01T00:48:14;99445.56;;;12.49;97.04
69772;BME280;57046;45.988;18.664;2023-04-01T00:50:44;99455.63;;;12.67;96.48
69772;BME280;57046;45.988;18.664;2023-04-01T00:53:11;99436.03;;;12.55;97.50
69772;BME280;57046;45.988;18.664;2023-04-01T00:55:40;99423.66;;;12.57;97.24
69772;BME280;57046;45.988;18.664;2023-04-01T00:58:13;99433.97;;;12.48;97.86
69772;BME280;57046;45.988;18.664;2023-04-01T01:00:40;99429.03;;;12.54;98.52
69772;BME280;57046;45.988;18.664;2023-04-01T01:03:05;99423.19;;;12.52;98.24
69772;BME280;57046;45.988;18.664;2023-04-01T01:11:05;99406.84;;;12.48;97.19
69772;BME280;57046;45.988;18.664;2023-04-01T01:13:36;99414.59;;;12.69;96.65
69772;BME280;57046;45.988;18.664;2023-04-01T01:16:15;99381.75;;;12.51;95.84
69772;BME280;57046;45.988;18.664;2023-04-01T01:26:54;99417.50;;;12.38;100.00
69772;BME280;57046;45.988;18.664;2023-04-01T01:32:48;99398.78;;;12.33;100.00
69772;BME280;57046;45.988;18.664;2023-04-01T01:37:49;99397.66;;;12.34;100.00
69772;BME280;57046;45.988;18.664;2023-04-01T01:40:17;99405.34;;;12.32;100.00
69772;BME280;57046;45.988;18.664;2023-04-01T01:42:49;99405.22;;;12.24;100.00
69772;BME280;57046;45.988;18.664;2023-04-01T01:45:19;99424.81;;;12.37;100.00
69772;BME280;57046;45.988;18.664;2023-04-01T01:47:48;99410.97;;;12.42;100.00
69772;BME280;57046;45.988;18.664;2023-04-01T01:50:15;99416.91;;;12.48;100.00
69772;BME280;57046;45.988;18.664;2023-04-01T01:52:41;99410.97;;;12.42;100.00
69772;BME280;57046;45.988;18.664;2023-04-01T01:55:26;99419.53;;;12.44;100.00
69772;BME280;57046;45.988;18.664;2023-04-01T01:57:51;99415.00;;;12.48;100.00
69772;BME280;57046;45.988;18.664;2023-04-01T02:00:18;99408.72;;;12.44;100.00
69772;BME280;57046;45.988;18.664;2023-04-01T02:02:46;99403.78;;;12.31;100.00
69772;BME280;57046;45.988;18.664;2023-04-01T02:05:15;99413.53;;;12.35;100.00
69772;BME280;57046;45.988;18.664;2023-04-01T02:07:43;99420.34;;;12.45;100.00
69772;BME280;57046;45.988;18.664;2023-04-01T02:10:10;99408.19;;;12.39;100.00
69772;BME280;57046;45.988;18.664;2023-04-01T02:12:37;99396.72;;;12.26;100.00
69772;BME280;57046;45.988;18.664;2023-04-01T02:15:07;99412.97;;;12.45;100.00
69772;BME280;57046;45.988;18.664;2023-04-01T02:17:35;99424.19;;;12.44;100.00
69772;BME280;57046;45.988;18.664;2023-04-01T02:20:09;99422.97;;;12.41;100.00
69772;BME280;57046;45.988;18.664;2023-04-01T02:22:40;99412.72;;;12.31;100.00
69772;BME280;57046;45.988;18.664;2023-04-01T02:25:10;99396.38;;;12.08;100.00
69772;BME280;57046;45.988;18.664;2023-04-01T02:27:36;99419.97;;;12.27;100.00
69772;BME280;57046;45.988;18.664;2023-04-01T02:30:03;99417.47;;;12.18;100.00
69772;BME280;57046;45.988;18.664;2023-04-01T02:32:29;99412.19;;;12.25;100.00
69772;BME280;57046;45.988;18.664;2023-04-01T02:34:57;99408.63;;;12.21;100.00
69772;BME280;57046;45.988;18.664;2023-04-01T02:37:22;99411.72;;;12.20;100.00
69772;BME280;57046;45.988;18.664;2023-04-01T02:39:48;99412.34;;;12.13;100.00
69772;BME280;57046;45.988;18.664;2023-04-01T02:42:13;99397.88;;;12.06;100.00
69772;BME280;57046;45.988;18.664;2023-04-01T02:44:39;99416.19;;;12.12;100.00
69772;BME280;57046;45.988;18.664;2023-04-01T02:47:05;99403.00;;;12.11;100.00
69772;BME280;57046;45.988;18.664;2023-04-01T02:49:30;99409.19;;;12.11;100.00
69772;BME280;57046;45.988;18.664;2023-04-01T02:51:55;99387.94;;;11.94;100.00
69772;BME280;57046;45.988;18.664;2023-04-01T02:54:21;99398.50;;;11.99;100.00
69772;BME280;57046;45.988;18.664;2023-04-01T02:56:46;99389.50;;;11.95;100.00
69772;BME280;57046;45.988;18.664;2023-04-01T02:59:12;99389.81;;;12.09;100.00
69772;BME280;57046;45.988;18.664;2023-04-01T03:01:37;99385.75;;;12.00;100.00
69772;BME280;57046;45.988;18.664;2023-04-01T03:04:03;99382.69;;;12.01;100.00
69772;BME280;57046;45.988;18.664;2023-04-01T03:06:29;99389.75;;;11.87;100.00
69772;BME280;57046;45.988;18.664;2023-04-01T03:08:54;99378.97;;;11.90;100.00
69772;BME280;57046;45.988;18.664;2023-04-01T03:11:20;99376.19;;;12.06;100.00
69772;BME280;57046;45.988;18.664;2023-04-01T03:13:45;99371.50;;;12.03;100.00
69772;BME280;57046;45.988;18.664;2023-04-01T03:16:10;99364.28;;;11.91;100.00
69772;BME280;57046;45.988;18.664;2023-04-01T03:18:36;99361.59;;;12.10;99.76
69772;BME280;57046;45.988;18.664;2023-04-01T03:21:22;99364.47;;;12.17;99.26
69772;BME280;57046;45.988;18.664;2023-04-01T03:23:48;99353.91;;;12.12;99.58
69772;BME280;57046;45.988;18.664;2023-04-01T03:26:14;99351.66;;;12.18;99.57
69772;BME280;57046;45.988;18.664;2023-04-01T03:28:39;99335.66;;;12.09;100.00
69772;BME280;57046;45.988;18.664;2023-04-01T03:31:05;99347.63;;;12.08;99.94
69772;BME280;57046;45.988;18.664;2023-04-01T03:33:31;99345.91;;;12.19;98.61
69772;BME280;57046;45.988;18.664;2023-04-01T03:35:56;99340.97;;;12.25;98.40
69772;BME280;57046;45.988;18.664;2023-04-01T03:38:22;99336.22;;;12.18;98.20
69772;BME280;57046;45.988;18.664;2023-04-01T03:40:47;99330.59;;;12.27;97.88
69772;BME280;57046;45.988;18.664;2023-04-01T03:43:13;99328.53;;;12.20;97.99
69772;BME280;57046;45.988;18.664;2023-04-01T03:45:49;99330.06;;;12.21;97.68
69772;BME280;57046;45.988;18.664;2023-04-01T03:48:15;99330.06;;;12.21;97.79
69772;BME280;57046;45.988;18.664;2023-04-01T03:50:41;99323.91;;;12.21;98.04
69772;BME280;57046;45.988;18.664;2023-04-01T03:53:07;99327.03;;;12.23;97.81
69772;BME280;57046;45.988;18.664;2023-04-01T03:55:33;99329.72;;;12.23;97.94
69772;BME280;57046;45.988;18.664;2023-04-01T03:57:59;99325.50;;;12.25;96.89
69772;BME280;57046;45.988;18.664;2023-04-01T04:00:24;99320.09;;;12.25;97.18
69772;BME280;57046;45.988;18.664;2023-04-01T04:02:50;99321.25;;;12.24;96.83
69772;BME280;57046;45.988;18.664;2023-04-01T04:05:15;99310.78;;;12.23;97.35
69772;BME280;57046;45.988;18.664;2023-04-01T04:07:40;99305.34;;;12.23;97.27
69772;BME280;57046;45.988;18.664;2023-04-01T04:10:06;99307.66;;;12.21;97.78
69772;BME280;57046;45.988;18.664;2023-04-01T04:12:32;99313.41;;;12.19;97.41
69772;BME280;57046;45.988;18.664;2023-04-01T04:14:57;99309.91;;;12.19;97.50
69772;BME280;57046;45.988;18.664;2023-04-01T04:17:23;99316.47;;;12.18;97.01
69772;BME280;57046;45.988;18.664;2023-04-01T04:19:48;99314.53;;;12.18;97.48
69772;BME280;57046;45.988;18.664;2023-04-01T04:22:13;99302.38;;;12.09;97.67
69772;BME280;57046;45.988;18.664;2023-04-01T04:24:39;99310.28;;;12.17;97.45
69772;BME280;57046;45.988;18.664;2023-04-01T04:27:04;99303.22;;;12.13;97.67
69772;BME280;57046;45.988;18.664;2023-04-01T04:29:30;99303.56;;;12.11;97.49
69772;BME280;57046;45.988;18.664;2023-04-01T04:31:55;99299.25;;;12.07;97.84
69772;BME280;57046;45.988;18.664;2023-04-01T04:34:21;99310.94;;;12.11;97.53
69772;BME280;57046;45.988;18.664;2023-04-01T04:36:46;99317.50;;;12.10;97.96
69772;BME280;57046;45.988;18.664;2023-04-01T04:39:11;99326.81;;;12.12;98.93
69772;BME280;57046;45.988;18.664;2023-04-01T04:41:37;99331.16;;;11.98;98.50
69772;BME280;57046;45.988;18.664;2023-04-01T04:44:03;99316.84;;;11.78;98.27
69772;BME280;57046;45.988;18.664;2023-04-01T04:46:29;99343.41;;;11.72;99.19
69772;BME280;57046;45.988;18.664;2023-04-01T04:48:54;99346.13;;;11.72;99.89
69772;BME280;57046;45.988;18.664;2023-04-01T04:51:20;99343.56;;;11.80;99.04
69772;BME280;57046;45.988;18.664;2023-04-01T04:53:47;99338.41;;;11.74;98.74
69772;BME280;57046;45.988;18.664;2023-04-01T04:56:12;99341.13;;;11.74;98.45
69772;BME280;57046;45.988;18.664;2023-04-01T04:58:39;99337.09;;;11.68;98.47
69772;BME280;57046;45.988;18.664;2023-04-01T05:01:11;99337.03;;;11.65;98.61
69772;BME280;57046;45.988;18.664;2023-04-01T05:03:37;99342.63;;;11.72;98.34
69772;BME280;57046;45.988;18.664;2023-04-01T05:06:04;99344.53;;;11.71;97.93
69772;BME280;57046;45.988;18.664;2023-04-01T05:08:29;99340.59;;;11.69;97.83
69772;BME280;57046;45.988;18.664;2023-04-01T05:10:55;99339.47;;;11.70;97.64
69772;BME280;57046;45.988;18.664;2023-04-01T05:13:20;99347.44;;;11.63;98.19
69772;BME280;57046;45.988;18.664;2023-04-01T05:15:45;99347.69;;;11.58;98.97
69772;BME280;57046;45.988;18.664;2023-04-01T05:18:11;99345.94;;;11.65;98.63
69772;BME280;57046;45.988;18.664;2023-04-01T05:20:36;99347.84;;;11.65;98.94
69772;BME280;57046;45.988;18.664;2023-04-01T05:23:02;99348.16;;;11.60;99.21
69772;BME280;57046;45.988;18.664;2023-04-01T05:25:27;99342.44;;;11.65;98.83
69772;BME280;57046;45.988;18.664;2023-04-01T05:27:53;99320.94;;;11.53;98.35
69772;BME280;57046;45.988;18.664;2023-04-01T05:30:18;99355.25;;;11.68;98.77
69772;BME280;57046;45.988;18.664;2023-04-01T05:32:44;99351.69;;;11.64;99.57
69772;BME280;57046;45.988;18.664;2023-04-01T05:35:09;99358.41;;;11.70;99.21
69772;BME280;57046;45.988;18.664;2023-04-01T05:37:36;99369.78;;;11.60;99.69
69772;BME280;57046;45.988;18.664;2023-04-01T05:40:02;99366.00;;;11.64;99.66
69772;BME280;57046;45.988;18.664;2023-04-01T05:42:27;99371.59;;;11.71;99.11
69772;BME280;57046;45.988;18.664;2023-04-01T05:44:54;99371.94;;;11.70;99.92
69772;BME280;57046;45.988;18.664;2023-04-01T05:47:19;99380.94;;;11.74;98.84
69772;BME280;57046;45.988;18.664;2023-04-01T05:49:45;99369.34;;;11.73;98.68
69772;BME280;57046;45.988;18.664;2023-04-01T05:52:10;99370.56;;;11.76;98.93
69772;BME280;57046;45.988;18.664;2023-04-01T05:54:36;99382.69;;;11.66;99.92
69772;BME280;57046;45.988;18.664;2023-04-01T05:57:01;99358.03;;;11.52;99.65
69772;BME280;57046;45.988;18.664;2023-04-01T05:59:26;99368.97;;;11.75;99.29
69772;BME280;57046;45.988;18.664;2023-04-01T06:01:52;99371.28;;;11.73;99.65
69772;BME280;57046;45.988;18.664;2023-04-01T06:04:18;99375.97;;;11.76;99.64
69772;BME280;57046;45.988;18.664;2023-04-01T06:06:44;99371.75;;;11.79;99.55
69772;BME280;57046;45.988;18.664;2023-04-01T06:09:21;99369.00;;;11.94;98.54
69772;BME280;57046;45.988;18.664;2023-04-01T06:17:12;99395.41;;;11.82;99.86
69772;BME280;57046;45.988;18.664;2023-04-01T06:36:12;99421.13;;;11.72;100.00
69772;BME280;57046;45.988;18.664;2023-04-01T06:38:46;99418.81;;;11.74;100.00
69772;BME280;57046;45.988;18.664;2023-04-01T06:41:26;99420.41;;;11.59;100.00
69772;BME280;57046;45.988;18.664;2023-04-01T06:46:47;99416.28;;;11.65;100.00
69772;BME280;57046;45.988;18.664;2023-04-01T06:49:47;99421.88;;;11.57;100.00
69772;BME280;57046;45.988;18.664;2023-04-01T06:52:20;99429.47;;;11.67;100.00
69772;BME280;57046;45.988;18.664;2023-04-01T06:54:51;99440.28;;;11.67;100.00
69772;BME280;57046;45.988;18.664;2023-04-01T06:59:54;99419.72;;;11.62;100.00
69772;BME280;57046;45.988;18.664;2023-04-01T07:02:38;99433.31;;;11.66;100.00
69772;BME280;57046;45.988;18.664;2023-04-01T07:05:06;99435.16;;;11.62;100.00
69772;BME280;57046;45.988;18.664;2023-04-01T07:09:58;99431.31;;;11.79;100.00
69772;BME280;57046;45.988;18.664;2023-04-01T07:14:54;99432.38;;;11.58;100.00
69772;BME280;57046;45.988;18.664;2023-04-01T07:17:24;99428.63;;;11.63;100.00
69772;BME280;57046;45.988;18.664;2023-04-01T07:19:56;99426.69;;;11.63;100.00
69772;BME280;57046;45.988;18.664;2023-04-01T07:22:30;99435.69;;;11.52;100.00
69772;BME280;57046;45.988;18.664;2023-04-01T07:25:02;99433.00;;;11.52;100.00
69772;BME280;57046;45.988;18.664;2023-04-01T07:27:27;99427.06;;;11.46;100.00
69772;BME280;57046;45.988;18.664;2023-04-01T07:29:56;99432.66;;;11.38;100.00
69772;BME280;57046;45.988;18.664;2023-04-01T07:32:40;99433.53;;;11.42;100.00
69772;BME280;57046;45.988;18.664;2023-04-01T07:35:17;99439.44;;;11.47;100.00
69772;BME280;57046;45.988;18.664;2023-04-01T07:37:58;99444.84;;;11.63;100.00
69772;BME280;57046;45.988;18.664;2023-04-01T07:40:51;99453.38;;;11.65;100.00
69772;BME280;57046;45.988;18.664;2023-04-01T07:43:42;99452.34;;;11.54;100.00
69772;BME280;57046;45.988;18.664;2023-04-01T07:57:09;99450.03;;;12.03;100.00
69772;BME280;57046;45.988;18.664;2023-04-01T07:59:58;99452.97;;;12.13;100.00
69772;BME280;57046;45.988;18.664;2023-04-01T08:07:45;99431.56;;;12.08;100.00
69772;BME280;57046;45.988;18.664;2023-04-01T08:21:05;99444.44;;;12.31;100.00
69772;BME280;57046;45.988;18.664;2023-04-01T08:23:40;99447.28;;;12.38;100.00
69772;BME280;57046;45.988;18.664;2023-04-01T08:26:28;99448.66;;;12.28;100.00
69772;BME280;57046;45.988;18.664;2023-04-01T08:29:25;99449.69;;;12.23;100.00
69772;BME280;57046;45.988;18.664;2023-04-01T08:31:56;99437.28;;;12.22;100.00
69772;BME280;57046;45.988;18.664;2023-04-01T08:34:28;99451.53;;;12.19;100.00
69772;BME280;57046;45.988;18.664;2023-04-01T08:37:07;99383.31;;;11.95;100.00
69772;BME280;57046;45.988;18.664;2023-04-01T08:39:37;99451.53;;;12.19;100.00
69772;BME280;57046;45.988;18.664;2023-04-01T08:45:29;99456.88;;;12.35;99.80
69772;BME280;57046;45.988;18.664;2023-04-01T08:56:20;99450.06;;;12.41;98.04
69772;BME280;57046;45.988;18.664;2023-04-01T09:10:23;99461.81;;;12.68;99.45
69772;BME280;57046;45.988;18.664;2023-04-01T09:15:36;99446.72;;;12.90;100.00
69772;BME280;57046;45.988;18.664;2023-04-01T09:23:33;99457.03;;;12.81;97.54
69772;BME280;57046;45.988;18.664;2023-04-01T09:26:21;99455.38;;;12.95;99.54
69772;BME280;57046;45.988;18.664;2023-04-01T09:37:18;99469.84;;;13.03;97.85
69772;BME280;57046;45.988;18.664;2023-04-01T09:45:42;99461.84;;;13.10;97.45
69772;BME280;57046;45.988;18.664;2023-04-01T09:51:05;99462.47;;;13.03;97.52
69772;BME280;57046;45.988;18.664;2023-04-01T10:01:50;99466.91;;;13.34;94.52
69772;BME280;57046;45.988;18.664;2023-04-01T10:34:33;99487.47;;;13.58;94.35
69772;BME280;57046;45.988;18.664;2023-04-01T10:40:07;99490.28;;;13.65;96.37
69772;BME280;57046;45.988;18.664;2023-04-01T10:53:32;99482.75;;;13.77;91.16
69772;BME280;57046;45.988;18.664;2023-04-01T10:59:15;99483.09;;;14.02;88.25
69772;BME280;57046;45.988;18.664;2023-04-01T11:30:05;99485.50;;;14.07;92.35
69772;BME280;57046;45.988;18.664;2023-04-01T11:32:53;99480.72;;;14.27;91.64
69772;BME280;57046;45.988;18.664;2023-04-01T11:44:16;99489.34;;;14.59;91.84
69772;BME280;57046;45.988;18.664;2023-04-01T11:54:50;99495.56;;;14.93;87.96
69772;BME280;57046;45.988;18.664;2023-04-01T12:00:24;99469.88;;;14.57;89.25
69772;BME280;57046;45.988;18.664;2023-04-01T12:06:00;99495.56;;;14.63;87.25
69772;BME280;57046;45.988;18.664;2023-04-01T12:11:32;99513.59;;;14.74;87.32
69772;BME280;57046;45.988;18.664;2023-04-01T12:14:08;99492.59;;;14.71;86.67
69772;BME280;57046;45.988;18.664;2023-04-01T12:16:39;99503.22;;;14.84;87.50
69772;BME280;57046;45.988;18.664;2023-04-01T12:19:18;99492.72;;;14.82;84.99
69772;BME280;57046;45.988;18.664;2023-04-01T12:24:44;99500.47;;;14.84;83.00
69772;BME280;57046;45.988;18.664;2023-04-01T12:33:03;99493.56;;;15.26;85.39
69772;BME280;57046;45.988;18.664;2023-04-01T12:38:56;99489.25;;;15.22;85.51
69772;BME280;57046;45.988;18.664;2023-04-01T12:41:55;99490.47;;;15.72;83.78
69772;BME280;57046;45.988;18.664;2023-04-01T12:50:02;99486.66;;;15.80;78.49
69772;BME280;57046;45.988;18.664;2023-04-01T13:01:27;99475.59;;;16.17;79.78
69772;BME280;57046;45.988;18.664;2023-04-01T13:12:37;99474.97;;;16.48;81.27
69772;BME280;57046;45.988;18.664;2023-04-01T13:15:28;99482.13;;;16.77;80.68
69772;BME280;57046;45.988;18.664;2023-04-01T13:29:17;99482.09;;;16.67;76.19
69772;BME280;57046;45.988;18.664;2023-04-01T13:34:44;99485.44;;;16.36;78.34
69772;BME280;57046;45.988;18.664;2023-04-01T13:40:12;99483.66;;;16.75;74.01
69772;BME280;57046;45.988;18.664;2023-04-01T13:45:15;99491.50;;;16.80;71.65
69772;BME280;57046;45.988;18.664;2023-04-01T13:50:53;99483.34;;;16.91;71.84
69772;BME280;57046;45.988;18.664;2023-04-01T13:54:00;99476.81;;;17.52;73.42
69772;BME280;57046;45.988;18.664;2023-04-01T14:13:43;99458.41;;;18.09;67.17
69772;BME280;57046;45.988;18.664;2023-04-01T14:16:26;99461.94;;;17.53;67.61
69772;BME280;57046;45.988;18.664;2023-04-01T14:19:27;99467.00;;;17.26;68.16
69772;BME280;57046;45.988;18.664;2023-04-01T14:22:02;99476.66;;;16.81;67.26
69772;BME280;57046;45.988;18.664;2023-04-01T14:24:51;99450.94;;;16.82;68.54
69772;BME280;57046;45.988;18.664;2023-04-01T14:27:35;99459.91;;;16.79;69.51
69772;BME280;57046;45.988;18.664;2023-04-01T14:35:38;99464.22;;;16.84;70.66
69772;BME280;57046;45.988;18.664;2023-04-01T14:38:30;99467.97;;;16.51;69.87
69772;BME280;57046;45.988;18.664;2023-04-01T14:44:10;99499.06;;;14.93;75.68
69772;BME280;57046;45.988;18.664;2023-04-01T14:49:27;99438.44;;;14.00;71.48
69772;BME280;57046;45.988;18.664;2023-04-01T14:52:14;99451.53;;;14.20;68.18
69772;BME280;57046;45.988;18.664;2023-04-01T14:54:44;99480.69;;;14.23;69.72
69772;BME280;57046;45.988;18.664;2023-04-01T14:57:14;99483.72;;;14.45;68.46
69772;BME280;57046;45.988;18.664;2023-04-01T14:59:47;99485.25;;;14.42;70.58
69772;BME280;57046;45.988;18.664;2023-04-01T15:05:06;99498.63;;;13.75;75.10
69772;BME280;57046;45.988;18.664;2023-04-01T15:16:02;99506.06;;;13.56;79.09
69772;BME280;57046;45.988;18.664;2023-04-01T15:18:09;99515.34;;;13.55;79.44
69772;BME280;57046;45.988;18.664;2023-04-01T15:23:56;99519.84;;;13.24;81.23
69772;BME280;57046;45.988;18.664;2023-04-01T15:34:26;99515.38;;;12.94;79.76
69772;BME280;57046;45.988;18.664;2023-04-01T15:37:38;99480.84;;;12.52;80.01
69772;BME280;57046;45.988;18.664;2023-04-01T15:40:26;99481.50;;;12.65;81.48
69772;BME280;57046;45.988;18.664;2023-04-01T15:45:48;99480.13;;;12.55;82.52
69772;BME280;57046;45.988;18.664;2023-04-01T15:48:31;99515.75;;;12.73;83.04
69772;BME280;57046;45.988;18.664;2023-04-01T15:54:06;99511.69;;;12.63;84.98
69772;BME280;57046;45.988;18.664;2023-04-01T15:59:27;99517.31;;;12.55;85.23
69772;BME280;57046;45.988;18.664;2023-04-01T16:02:07;99525.03;;;12.72;85.31
69772;BME280;57046;45.988;18.664;2023-04-01T16:05:37;99529.00;;;12.59;88.60
69772;BME280;57046;45.988;18.664;2023-04-01T16:07:53;99538.22;;;12.54;87.24
69772;BME280;57046;45.988;18.664;2023-04-01T16:13:28;99536.84;;;12.45;88.71
69772;BME280;57046;45.988;18.664;2023-04-01T16:21:10;99547.63;;;12.60;93.49
69772;BME280;57046;45.988;18.664;2023-04-01T16:23:50;99543.00;;;12.80;91.63
69772;BME280;57046;45.988;18.664;2023-04-01T16:38:18;99551.28;;;12.87;89.18
69772;BME280;57046;45.988;18.664;2023-04-01T16:41:10;99520.28;;;12.69;89.37
69772;BME280;57046;45.988;18.664;2023-04-01T16:43:50;99554.22;;;12.79;89.38
69772;BME280;57046;45.988;18.664;2023-04-01T16:46:38;99570.19;;;12.64;89.79
69772;BME280;57046;45.988;18.664;2023-04-01T16:51:53;99539.72;;;12.52;89.04
69772;BME280;57046;45.988;18.664;2023-04-01T16:54:35;99562.69;;;12.77;89.81
69772;BME280;57046;45.988;18.664;2023-04-01T16:57:12;99568.34;;;12.68;90.85
69772;BME280;57046;45.988;18.664;2023-04-01T17:02:25;99563.56;;;12.81;89.90
69772;BME280;57046;45.988;18.664;2023-04-01T17:05:02;99568.19;;;12.81;89.84
69772;BME280;57046;45.988;18.664;2023-04-01T17:07:56;99573.91;;;12.75;89.33
69772;BME280;57046;45.988;18.664;2023-04-01T17:21:46;99583.53;;;12.38;89.38
69772;BME280;57046;45.988;18.664;2023-04-01T17:27:14;99589.31;;;12.37;88.49
69772;BME280;57046;45.988;18.664;2023-04-01T17:42:00;99614.00;;;12.00;88.81
69772;BME280;57046;45.988;18.664;2023-04-01T18:05:33;99632.69;;;11.46;90.96
69772;BME280;57046;45.988;18.664;2023-04-01T18:11:24;99639.91;;;11.86;92.28
69772;BME280;57046;45.988;18.664;2023-04-01T18:19:39;99633.91;;;12.93;93.05
69772;BME280;57046;45.988;18.664;2023-04-01T18:24:56;99643.16;;;12.07;89.05
69772;BME280;57046;45.988;18.664;2023-04-01T18:27:36;99616.78;;;11.60;89.99
69772;BME280;57046;45.988;18.664;2023-04-01T18:32:53;99640.53;;;11.51;90.61
69772;BME280;57046;45.988;18.664;2023-04-01T18:35:29;99638.09;;;11.46;90.81
69772;BME280;57046;45.988;18.664;2023-04-01T18:38:11;99640.41;;;11.32;90.85
69772;BME280;57046;45.988;18.664;2023-04-01T18:43:26;99656.44;;;11.25;90.08
69772;BME280;57046;45.988;18.664;2023-04-01T18:46:00;99652.84;;;11.21;90.03
69772;BME280;57046;45.988;18.664;2023-04-01T18:54:30;99669.19;;;11.12;90.22
69772;BME280;57046;45.988;18.664;2023-04-01T18:57:08;99606.81;;;10.65;89.65
69772;BME280;57046;45.988;18.664;2023-04-01T19:05:49;99676.00;;;10.82;89.27
69772;BME280;57046;45.988;18.664;2023-04-01T19:07:55;99681.34;;;10.54;90.30
69772;BME280;57046;45.988;18.664;2023-04-01T19:16:12;99691.78;;;10.80;100.00
69772;BME280;57046;45.988;18.664;2023-04-01T19:21:53;99686.50;;;10.35;92.18
69772;BME280;57046;45.988;18.664;2023-04-01T19:27:23;99687.53;;;10.31;92.05
69772;BME280;57046;45.988;18.664;2023-04-01T19:30:05;99688.09;;;10.36;92.19
69772;BME280;57046;45.988;18.664;2023-04-01T19:51:00;99687.91;;;10.08;90.52
69772;BME280;57046;45.988;18.664;2023-04-01T19:53:38;99668.56;;;9.94;90.21
69772;BME280;57046;45.988;18.664;2023-04-01T20:01:12;99699.94;;;9.99;89.73
69772;BME280;57046;45.988;18.664;2023-04-01T20:04:53;99699.81;;;9.95;89.55
69772;BME280;57046;45.988;18.664;2023-04-01T20:07:13;99697.13;;;9.95;89.19
69772;BME280;57046;45.988;18.664;2023-04-01T20:12:58;99697.66;;;9.89;90.30
69772;BME280;57046;45.988;18.664;2023-04-01T20:15:43;99697.53;;;9.85;90.23
69772;BME280;57046;45.988;18.664;2023-04-01T20:18:26;99674.47;;;9.76;90.07
69772;BME280;57046;45.988;18.664;2023-04-01T20:21:28;99700.03;;;9.90;89.67
69772;BME280;57046;45.988;18.664;2023-04-01T20:24:24;99697.00;;;9.92;89.27
69772;BME280;57046;45.988;18.664;2023-04-01T20:27:14;99697.53;;;9.85;89.88
69772;BME280;57046;45.988;18.664;2023-04-01T20:42:13;99708.84;;;9.46;91.77
69772;BME280;57046;45.988;18.664;2023-04-01T20:44:13;99704.38;;;9.50;91.50
69772;BME280;57046;45.988;18.664;2023-04-01T20:46:56;99696.78;;;9.52;91.29
69772;BME280;57046;45.988;18.664;2023-04-01T20:52:16;99706.75;;;9.51;90.52
69772;BME280;57046;45.988;18.664;2023-04-01T20:54:55;99706.16;;;9.46;90.01
69772;BME280;57046;45.988;18.664;2023-04-01T20:57:38;99714.91;;;9.43;90.65
69772;BME280;57046;45.988;18.664;2023-04-01T21:03:12;99723.75;;;9.31;91.96
69772;BME280;57046;45.988;18.664;2023-04-01T21:11:36;99714.47;;;9.41;93.04
69772;BME280;57046;45.988;18.664;2023-04-01T21:25:55;99728.41;;;9.43;92.81
69772;BME280;57046;45.988;18.664;2023-04-01T21:31:09;99714.19;;;9.34;91.07
69772;BME280;57046;45.988;18.664;2023-04-01T21:39:19;99742.53;;;9.40;90.55
69772;BME280;57046;45.988;18.664;2023-04-01T21:42:04;99742.28;;;9.33;90.61
69772;BME280;57046;45.988;18.664;2023-04-01T21:44:38;99738.19;;;9.27;90.04
69772;BME280;57046;45.988;18.664;2023-04-01T21:47:30;99747.88;;;9.28;89.70
69772;BME280;57046;45.988;18.664;2023-04-01T22:01:13;99756.81;;;9.19;89.13
69772;BME280;57046;45.988;18.664;2023-04-01T22:07:00;99766.66;;;9.15;88.58
69772;BME280;57046;45.988;18.664;2023-04-01T22:09:33;99752.91;;;9.08;89.40
69772;BME280;57046;45.988;18.664;2023-04-01T22:12:17;99761.00;;;9.08;89.49
69772;BME280;57046;45.988;18.664;2023-04-01T22:25:20;99757.34;;;8.84;92.56
69772;BME280;57046;45.988;18.664;2023-04-01T22:28:03;99745.03;;;8.74;94.06
69772;BME280;57046;45.988;18.664;2023-04-01T22:30:34;99757.81;;;8.86;93.89
69772;BME280;57046;45.988;18.664;2023-04-01T22:36:17;99765.28;;;8.80;95.70
69772;BME280;57046;45.988;18.664;2023-04-01T22:42:10;99756.03;;;8.90;95.52
69772;BME280;57046;45.988;18.664;2023-04-01T22:48:00;99769.94;;;9.00;95.09